createdAt,value
2022-10-08T00:00:00.003Z,30.50
2022-10-08T00:02:29.790Z,37.07
2022-10-08T00:04:58.125Z,30.80
2022-10-08T00:07:26.770Z,28.00
2022-10-08T00:09:55.380Z,29.73
2022-10-08T00:12:23.990Z,29.43
2022-10-08T00:14:52.809Z,30.93
2022-10-08T00:17:22.431Z,30.57
2022-10-08T00:19:51.077Z,32.97
2022-10-08T00:22:19.683Z,34.07
2022-10-08T00:24:49.907Z,35.37
2022-10-08T00:27:18.293Z,33.95
2022-10-08T00:29:46.999Z,35.30
2022-10-08T00:32:15.271Z,31.30
2022-10-08T00:34:45.265Z,43.45
2022-10-08T00:37:14.132Z,36.72
2022-10-08T00:39:43.216Z,32.60
2022-10-08T00:42:13.665Z,32.87
2022-10-08T00:45:01.049Z,33.28
2022-10-08T00:47:45.438Z,29.80
2022-10-08T00:50:21.114Z,29.95
2022-10-08T00:52:53.472Z,32.50
2022-10-08T00:55:27.161Z,33.33
2022-10-08T00:58:02.218Z,31.98
2022-10-08T01:00:33.281Z,32.60
2022-10-08T01:03:03.761Z,35.10
2022-10-08T01:05:50.502Z,32.03
2022-10-08T01:08:34.670Z,30.67
2022-10-08T01:11:21.284Z,32.25
2022-10-08T01:14:00.982Z,29.03
2022-10-08T01:16:41.333Z,28.37
2022-10-08T01:19:38.345Z,31.60
2022-10-08T01:22:24.084Z,31.67
2022-10-08T01:25:15.723Z,28.97
2022-10-08T01:27:50.591Z,35.57
2022-10-08T01:30:20.900Z,32.30
2022-10-08T01:32:56.294Z,32.67
2022-10-08T01:35:31.262Z,28.90
2022-10-08T01:38:07.072Z,29.63
2022-10-08T01:40:38.803Z,30.53
2022-10-08T01:43:13.706Z,29.47
2022-10-08T01:45:49.450Z,29.00
2022-10-08T01:48:27.210Z,30.00
2022-10-08T01:51:01.288Z,29.67
2022-10-08T01:53:34.725Z,31.57
2022-10-08T01:56:07.097Z,26.67
2022-10-08T01:58:44.221Z,27.63
2022-10-08T02:01:23.580Z,29.97
2022-10-08T02:04:10.741Z,29.37
2022-10-08T02:06:48.868Z,28.23
2022-10-08T02:09:17.835Z,32.33
2022-10-08T02:11:46.380Z,30.23
2022-10-08T02:14:16.387Z,28.30
2022-10-08T02:16:52.126Z,27.00
2022-10-08T02:19:36.816Z,27.10
2022-10-08T02:22:08.006Z,32.27
2022-10-08T02:24:44.714Z,37.00
2022-10-08T02:27:15.729Z,37.97
2022-10-08T02:29:58.080Z,34.60
2022-10-08T02:32:36.025Z,30.30
2022-10-08T02:35:13.145Z,44.33
2022-10-08T02:37:48.915Z,34.08
2022-10-08T02:40:19.678Z,34.35
2022-10-08T02:42:54.325Z,33.70
2022-10-08T02:45:29.135Z,33.50
2022-10-08T02:48:06.755Z,36.40
2022-10-08T02:50:40.866Z,32.63
2022-10-08T02:53:09.789Z,36.33
2022-10-08T02:55:50.262Z,35.58
2022-10-08T02:58:19.437Z,36.03
2022-10-08T03:00:58.516Z,36.03
2022-10-08T03:03:34.078Z,39.38
2022-10-08T03:06:08.444Z,38.63
2022-10-08T03:08:43.259Z,33.30
2022-10-08T03:11:13.682Z,34.87
2022-10-08T03:13:46.858Z,36.53
2022-10-08T03:16:22.461Z,38.03
2022-10-08T03:18:53.010Z,35.00
2022-10-08T03:21:22.102Z,31.43
2022-10-08T03:23:50.363Z,37.80
2022-10-08T03:26:19.001Z,36.87
2022-10-08T03:28:47.346Z,39.75
2022-10-08T03:31:17.311Z,38.63
2022-10-08T03:33:50.127Z,34.10
2022-10-08T03:36:18.787Z,39.80
2022-10-08T03:38:47.127Z,38.03
2022-10-08T03:41:16.157Z,38.87
2022-10-08T03:43:45.147Z,37.43
2022-10-08T03:46:16.358Z,36.33
2022-10-08T03:48:49.124Z,36.77
2022-10-08T03:51:19.283Z,38.30
2022-10-08T03:53:48.274Z,40.37
2022-10-08T03:56:18.891Z,38.73
2022-10-08T03:58:47.947Z,37.17
2022-10-08T04:01:19.247Z,36.78
2022-10-08T04:03:47.566Z,42.65
2022-10-08T04:06:16.344Z,37.57
2022-10-08T04:08:45.360Z,39.45
2022-10-08T04:11:16.067Z,42.67
2022-10-08T04:13:45.570Z,36.63
2022-10-08T04:16:18.793Z,39.20
2022-10-08T04:18:49.536Z,33.30
2022-10-08T04:21:19.916Z,40.23
2022-10-08T04:23:50.327Z,36.75
2022-10-08T04:26:18.986Z,35.00
2022-10-08T04:28:48.716Z,37.70
2022-10-08T04:31:21.853Z,38.05
2022-10-08T04:33:52.070Z,38.42
2022-10-08T04:36:24.557Z,37.25
2022-10-08T04:38:53.110Z,38.15
2022-10-08T04:41:23.966Z,39.22
2022-10-08T04:43:53.910Z,36.80
2022-10-08T04:46:24.119Z,39.08
2022-10-08T04:48:55.325Z,40.93
2022-10-08T04:51:25.516Z,37.35
2022-10-08T04:53:56.562Z,35.43
2022-10-08T04:56:27.191Z,36.47
2022-10-08T04:58:56.323Z,37.40
2022-10-08T05:01:27.754Z,43.33
2022-10-08T05:03:58.358Z,43.57
2022-10-08T05:06:29.114Z,39.73
2022-10-08T05:08:59.111Z,39.27
2022-10-08T05:11:28.748Z,41.60
2022-10-08T05:13:59.313Z,39.70
2022-10-08T05:16:29.392Z,37.97
2022-10-08T05:18:58.434Z,41.33
2022-10-08T05:21:28.939Z,39.77
2022-10-08T05:24:01.315Z,40.97
2022-10-08T05:29:20.578Z,45.38
2022-10-08T05:31:50.276Z,42.20
2022-10-08T05:34:18.931Z,36.70
2022-10-08T05:36:47.707Z,38.38
2022-10-08T05:39:16.528Z,35.25
2022-10-08T05:41:44.938Z,42.97
2022-10-08T05:44:14.934Z,40.40
2022-10-08T05:46:43.653Z,40.33
2022-10-08T05:49:20.080Z,38.03
2022-10-08T05:51:49.029Z,35.78
2022-10-08T05:54:18.214Z,40.08
2022-10-08T05:56:46.577Z,40.33
2022-10-08T05:59:18.978Z,44.78
2022-10-08T06:01:47.772Z,44.08
2022-10-08T06:04:18.465Z,46.03
2022-10-08T06:06:47.095Z,44.30
2022-10-08T06:09:18.579Z,41.92
2022-10-08T06:11:48.049Z,42.67
2022-10-08T06:14:19.199Z,44.88
2022-10-08T06:16:47.782Z,44.85
2022-10-08T06:19:17.990Z,46.03
2022-10-08T06:21:46.597Z,46.13
2022-10-08T06:24:15.608Z,44.67
2022-10-08T06:26:45.784Z,45.42
2022-10-08T06:29:17.417Z,40.33
2022-10-08T06:31:47.144Z,39.00
2022-10-08T06:34:16.955Z,40.17
2022-10-08T06:36:45.570Z,38.50
2022-10-08T06:39:17.763Z,39.80
2022-10-08T06:41:46.442Z,43.05
2022-10-08T06:44:19.033Z,36.40
2022-10-08T06:46:47.582Z,44.95
2022-10-08T06:49:18.294Z,35.17
2022-10-08T06:51:46.995Z,38.85
2022-10-08T06:54:15.300Z,42.72
2022-10-08T06:56:43.588Z,42.33
2022-10-08T06:59:12.077Z,37.22
2022-10-08T07:01:40.461Z,39.42
2022-10-08T07:04:12.752Z,42.00
2022-10-08T07:06:42.407Z,37.67
2022-10-08T07:09:11.037Z,39.78
2022-10-08T07:11:40.060Z,34.95
2022-10-08T07:14:08.359Z,36.92
2022-10-08T07:16:36.839Z,42.58
2022-10-08T07:19:05.297Z,37.90
2022-10-08T07:21:33.629Z,39.90
2022-10-08T07:24:03.674Z,35.97
2022-10-08T07:26:34.865Z,41.60
2022-10-08T07:29:06.489Z,37.03
2022-10-08T07:31:38.088Z,34.95
2022-10-08T07:34:09.453Z,33.65
2022-10-08T07:36:38.954Z,34.72
2022-10-08T07:39:12.590Z,34.63
2022-10-08T07:41:41.711Z,34.15
2022-10-08T07:44:13.305Z,37.63
2022-10-08T07:46:46.905Z,42.45
2022-10-08T07:49:15.891Z,38.33
2022-10-08T07:51:44.967Z,34.10
2022-10-08T07:54:17.433Z,35.22
2022-10-08T07:56:46.113Z,33.25
2022-10-08T07:59:16.035Z,35.05
2022-10-08T08:01:45.470Z,39.45
2022-10-08T08:04:14.710Z,40.88
2022-10-08T08:06:45.510Z,39.70
2022-10-08T08:09:16.174Z,33.92
2022-10-08T08:11:46.089Z,37.47
2022-10-08T08:14:14.430Z,34.58
2022-10-08T08:16:43.149Z,34.70
2022-10-08T08:19:11.608Z,40.17
2022-10-08T08:21:40.424Z,39.80
2022-10-08T08:24:12.780Z,35.65
2022-10-08T08:26:44.722Z,36.45
2022-10-08T08:29:16.406Z,38.78
2022-10-08T08:31:47.743Z,36.92
2022-10-08T08:34:19.204Z,36.13
2022-10-08T08:36:51.243Z,36.95
2022-10-08T08:39:22.776Z,36.95
2022-10-08T08:42:07.803Z,37.38
2022-10-08T08:44:40.401Z,38.13
2022-10-08T08:47:18.391Z,38.53
2022-10-08T08:49:53.763Z,36.38
2022-10-08T08:52:25.851Z,42.47
2022-10-08T08:54:55.450Z,35.50
2022-10-08T08:57:37.038Z,36.85
2022-10-08T09:00:19.829Z,39.17
2022-10-08T09:02:58.648Z,36.65
2022-10-08T09:05:32.561Z,35.88
2022-10-08T09:08:11.430Z,40.17
2022-10-08T09:10:47.866Z,38.05
2022-10-08T09:13:23.443Z,38.35
2022-10-08T09:15:53.040Z,30.70
2022-10-08T09:18:21.350Z,34.28
2022-10-08T09:20:50.003Z,31.02
2022-10-08T09:23:21.436Z,35.30
2022-10-08T09:25:57.730Z,33.38
2022-10-08T09:28:49.038Z,30.42
2022-10-08T09:31:29.647Z,35.42
2022-10-08T09:34:07.904Z,36.83
2022-10-08T09:36:39.365Z,31.63
2022-10-08T09:39:23.345Z,36.08
2022-10-08T09:42:17.143Z,36.10
2022-10-08T09:44:49.349Z,36.90
2022-10-08T09:47:20.581Z,34.53
2022-10-08T09:50:06.111Z,29.92
2022-10-08T09:52:37.642Z,29.65
2022-10-08T09:55:18.222Z,29.83
2022-10-08T09:57:49.599Z,29.95
2022-10-08T10:00:31.214Z,33.65
2022-10-08T10:03:01.636Z,34.15
2022-10-08T10:05:33.287Z,33.63
2022-10-08T10:08:02.393Z,30.98
2022-10-08T10:10:37.660Z,30.83
2022-10-08T10:13:14.741Z,32.63
2022-10-08T10:15:53.076Z,32.28
2022-10-08T10:18:27.659Z,31.35
2022-10-08T10:21:02.326Z,26.55
2022-10-08T10:23:39.620Z,28.88
2022-10-08T10:26:16.441Z,26.02
2022-10-08T10:28:49.459Z,30.20
2022-10-08T10:31:24.519Z,34.10
2022-10-08T10:34:01.371Z,31.20
2022-10-08T10:36:36.116Z,30.95
2022-10-08T10:39:19.814Z,30.50
2022-10-08T10:41:55.636Z,33.10
2022-10-08T10:44:29.070Z,30.08
2022-10-08T10:47:02.741Z,23.77
2022-10-08T10:49:38.943Z,30.92
2022-10-08T10:52:34.529Z,34.58
2022-10-08T10:55:19.717Z,28.58
2022-10-08T10:58:23.894Z,25.75
2022-10-08T11:01:08.416Z,27.90
2022-10-08T11:03:52.066Z,22.88
2022-10-08T11:06:54.300Z,19.85
2022-10-08T11:09:37.217Z,21.42
2022-10-08T11:12:25.712Z,23.70
2022-10-08T11:15:07.588Z,17.88
2022-10-08T11:18:07.962Z,19.52
2022-10-08T11:20:56.608Z,23.35
2022-10-08T11:24:17.276Z,20.38
2022-10-08T11:26:56.683Z,23.10
2022-10-08T11:29:36.478Z,17.77
2022-10-08T11:32:11.505Z,13.98
2022-10-08T11:34:48.093Z,18.50
2022-10-08T11:37:30.401Z,11.27
2022-10-08T11:40:07.387Z,11.65
2022-10-08T11:42:49.068Z,9.80
2022-10-08T11:45:35.317Z,12.88
2022-10-08T11:48:35.100Z,11.93
2022-10-08T11:51:39.926Z,10.27
2022-10-08T11:54:17.181Z,14.65
2022-10-08T11:56:48.914Z,10.80
2022-10-08T11:59:37.904Z,10.75
2022-10-08T12:02:23.973Z,9.02
2022-10-08T12:04:54.899Z,10.77
2022-10-08T12:07:31.121Z,7.50
2022-10-08T12:10:34.072Z,10.60
2022-10-08T12:13:31.621Z,9.40
2022-10-08T12:16:06.975Z,8.43
2022-10-08T12:18:53.851Z,9.25
2022-10-08T12:21:55.232Z,10.07
2022-10-08T12:24:56.940Z,6.50
2022-10-08T12:27:37.446Z,7.97
2022-10-08T12:30:11.060Z,11.02
2022-10-08T12:32:58.811Z,10.95
2022-10-08T12:35:31.889Z,8.85
2022-10-08T12:38:39.643Z,5.40
2022-10-08T12:41:22.116Z,11.90
2022-10-08T12:44:00.198Z,7.93
2022-10-08T12:46:50.285Z,8.20
2022-10-08T12:49:34.763Z,10.43
2022-10-08T12:52:10.361Z,7.10
2022-10-08T12:54:47.361Z,7.35
2022-10-08T12:57:23.946Z,7.80
2022-10-08T12:59:55.350Z,12.68
2022-10-08T13:02:38.446Z,10.00
2022-10-08T13:05:24.325Z,9.02
2022-10-08T13:07:52.651Z,9.55
2022-10-08T13:10:25.200Z,9.75
2022-10-08T13:13:06.076Z,6.78
2022-10-08T13:15:36.719Z,6.20
2022-10-08T13:18:15.836Z,7.70
2022-10-08T13:20:58.515Z,7.53
2022-10-08T13:23:34.649Z,6.97
2022-10-08T13:26:03.063Z,5.68
2022-10-08T13:28:59.278Z,10.70
2022-10-08T13:31:25.371Z,6.28
2022-10-08T13:33:53.899Z,7.72
2022-10-08T13:36:24.371Z,7.78
2022-10-08T13:38:52.966Z,9.55
2022-10-08T13:41:25.195Z,5.82
2022-10-08T13:43:53.572Z,8.52
2022-10-08T13:46:23.311Z,4.22
2022-10-08T13:48:51.698Z,7.40
2022-10-08T13:51:20.187Z,8.60
2022-10-08T13:53:48.587Z,7.25
2022-10-08T13:56:18.179Z,4.55
2022-10-08T13:58:46.779Z,11.25
2022-10-08T14:01:15.264Z,5.30
2022-10-08T14:03:45.025Z,8.93
2022-10-08T14:06:13.448Z,12.30
2022-10-08T14:08:41.754Z,4.50
2022-10-08T14:11:11.146Z,13.10
2022-10-08T14:13:39.459Z,7.18
2022-10-08T14:16:08.140Z,5.85
2022-10-08T14:18:36.455Z,9.50
2022-10-08T14:21:07.059Z,5.22
2022-10-08T14:23:35.351Z,7.85
2022-10-08T14:26:03.646Z,6.15
2022-10-08T14:28:32.055Z,14.98
2022-10-08T14:31:00.447Z,8.02
2022-10-08T14:33:28.756Z,5.70
2022-10-08T14:35:57.088Z,8.80
2022-10-08T14:38:26.777Z,7.95
2022-10-08T14:40:55.123Z,9.05
2022-10-08T14:43:27.451Z,5.18
2022-10-08T14:45:56.533Z,6.45
2022-10-08T14:48:24.834Z,5.05
2022-10-08T14:50:53.182Z,6.63
2022-10-08T14:53:21.813Z,7.53
2022-10-08T14:56:10.909Z,6.10
2022-10-08T14:58:40.213Z,9.05
2022-10-08T15:01:08.782Z,5.68
2022-10-08T15:03:37.147Z,6.97
2022-10-08T15:06:05.646Z,9.35
2022-10-08T15:08:34.868Z,6.60
2022-10-08T15:11:05.470Z,8.13
2022-10-08T15:13:33.798Z,7.43
2022-10-08T15:16:02.526Z,7.90
2022-10-08T15:18:32.467Z,5.28
2022-10-08T15:21:01.821Z,7.50
2022-10-08T15:23:30.432Z,6.28
2022-10-08T15:26:00.665Z,3.88
2022-10-08T15:28:31.385Z,9.75
2022-10-08T15:31:05.880Z,7.43
2022-10-08T15:33:39.205Z,6.30
2022-10-08T15:36:19.711Z,9.70
2022-10-08T15:38:49.087Z,5.32
2022-10-08T15:41:18.380Z,7.40
2022-10-08T15:43:48.329Z,7.65
2022-10-08T15:46:18.907Z,5.25
2022-10-08T15:48:53.807Z,5.63
2022-10-08T15:51:22.744Z,7.10
2022-10-08T15:53:53.546Z,6.07
2022-10-08T15:56:22.293Z,11.05
2022-10-08T15:58:53.741Z,12.88
2022-10-08T16:01:24.625Z,12.43
2022-10-08T16:03:54.875Z,15.13
2022-10-08T16:06:25.823Z,13.98
2022-10-08T16:08:56.815Z,14.63
2022-10-08T16:11:27.746Z,12.90
2022-10-08T16:14:01.331Z,12.27
2022-10-08T16:16:30.532Z,14.27
2022-10-08T16:19:01.161Z,8.98
2022-10-08T16:21:31.790Z,11.20
2022-10-08T16:24:01.330Z,11.38
2022-10-08T16:26:31.885Z,10.02
2022-10-08T16:29:06.016Z,10.45
2022-10-08T16:31:36.701Z,7.68
2022-10-08T16:34:07.416Z,9.63
2022-10-08T16:36:37.562Z,14.30
2022-10-08T16:39:07.293Z,18.35
2022-10-08T16:41:37.900Z,21.13
2022-10-08T16:44:12.747Z,24.00
2022-10-08T16:46:44.249Z,42.25
2022-10-08T16:49:23.795Z,58.80
2022-10-08T16:51:54.438Z,52.47
2022-10-08T16:54:23.094Z,25.23
2022-10-08T16:56:52.233Z,14.75
2022-10-08T16:59:23.876Z,15.52
2022-10-08T17:01:57.245Z,9.95
2022-10-08T17:04:28.766Z,15.98
2022-10-08T17:06:57.452Z,5.78
2022-10-08T17:09:26.102Z,5.07
2022-10-08T17:11:54.794Z,9.10
2022-10-08T17:14:24.772Z,7.45
2022-10-08T17:16:53.502Z,7.65
2022-10-08T17:19:22.144Z,10.38
2022-10-08T17:21:50.773Z,8.15
2022-10-08T17:24:19.042Z,9.10
2022-10-08T17:26:48.993Z,9.20
2022-10-08T17:29:17.747Z,22.60
2022-10-08T17:31:47.442Z,23.40
2022-10-08T17:34:16.389Z,23.90
2022-10-08T17:36:44.786Z,33.20
2022-10-08T17:39:15.186Z,37.97
2022-10-08T17:41:44.933Z,24.58
2022-10-08T17:44:13.810Z,22.58
2022-10-08T17:46:45.915Z,16.95
2022-10-08T17:49:18.131Z,11.25
2022-10-08T17:51:47.792Z,10.35
2022-10-08T17:54:19.730Z,13.70
2022-10-08T17:56:48.967Z,10.32
2022-10-08T17:59:19.102Z,8.88
2022-10-08T18:01:47.903Z,9.20
2022-10-08T18:04:19.049Z,13.68
2022-10-08T18:06:48.951Z,8.68
2022-10-08T18:09:19.411Z,12.95
2022-10-08T18:11:50.930Z,12.52
2022-10-08T18:14:20.229Z,12.75
2022-10-08T18:16:49.137Z,14.60
2022-10-08T18:19:19.917Z,15.63
2022-10-08T18:21:48.565Z,24.25
2022-10-08T18:24:18.107Z,19.05
2022-10-08T18:26:47.008Z,19.40
2022-10-08T18:29:16.532Z,17.50
2022-10-08T18:31:47.395Z,16.42
2022-10-08T18:34:19.449Z,21.50
2022-10-08T18:36:49.401Z,20.15
2022-10-08T18:39:22.565Z,19.20
2022-10-08T18:41:56.208Z,17.05
2022-10-08T18:44:27.299Z,15.55
2022-10-08T18:46:56.240Z,15.40
2022-10-08T18:49:30.907Z,13.80
2022-10-08T18:52:01.538Z,11.02
2022-10-08T18:54:30.767Z,16.17
2022-10-08T18:57:00.455Z,14.63
2022-10-08T18:59:31.121Z,12.20
2022-10-08T19:02:00.721Z,15.32
2022-10-08T19:04:31.012Z,15.35
2022-10-08T19:06:59.478Z,12.73
2022-10-08T19:09:28.229Z,8.18
2022-10-08T19:11:57.659Z,9.98
2022-10-08T19:14:26.397Z,11.02
2022-10-08T19:16:55.276Z,8.52
2022-10-08T19:19:27.474Z,12.15
2022-10-08T19:22:00.283Z,27.58
2022-10-08T19:24:30.011Z,27.05
2022-10-08T19:26:59.149Z,21.30
2022-10-08T19:29:31.993Z,16.10
2022-10-08T19:32:00.903Z,8.43
2022-10-08T19:34:30.197Z,7.87
2022-10-08T19:37:00.535Z,8.05
2022-10-08T19:39:30.899Z,9.05
2022-10-08T19:41:59.930Z,7.30
2022-10-08T19:44:28.644Z,6.05
2022-10-08T19:46:57.487Z,7.10
2022-10-08T19:49:26.168Z,5.57
2022-10-08T19:51:54.984Z,7.45
2022-10-08T19:54:25.704Z,5.97
2022-10-08T19:56:55.962Z,8.73
2022-10-08T19:59:24.828Z,5.40
2022-10-08T20:01:53.603Z,5.77
2022-10-08T20:04:23.493Z,5.73
2022-10-08T20:06:52.392Z,9.40
2022-10-08T20:09:21.160Z,7.67
2022-10-08T20:11:51.317Z,9.13
2022-10-08T20:14:20.096Z,7.33
2022-10-08T20:16:48.746Z,10.57
2022-10-08T20:19:20.751Z,9.03
2022-10-08T20:21:51.696Z,13.80
2022-10-08T20:24:20.731Z,12.93
2022-10-08T20:26:51.062Z,14.07
2022-10-08T20:29:21.726Z,13.60
2022-10-08T20:31:54.080Z,12.83
2022-10-08T20:34:26.819Z,14.63
2022-10-08T20:36:55.732Z,11.33
2022-10-08T20:39:24.764Z,10.20
2022-10-08T20:41:54.996Z,10.43
2022-10-08T20:44:24.523Z,17.73
2022-10-08T20:46:53.217Z,10.87
2022-10-08T20:49:22.002Z,13.13
2022-10-08T20:51:51.047Z,17.67
2022-10-08T20:54:19.794Z,18.80
2022-10-08T20:56:48.453Z,15.30
2022-10-08T20:59:20.546Z,10.37
2022-10-08T21:01:51.086Z,8.27
2022-10-08T21:04:20.429Z,6.50
2022-10-08T21:06:50.904Z,7.07
2022-10-08T21:09:21.922Z,13.10
2022-10-08T21:11:50.595Z,7.67
2022-10-08T21:14:22.843Z,13.17
2022-10-08T21:16:53.479Z,10.60
2022-10-08T21:19:23.280Z,11.37
2022-10-08T21:21:52.307Z,10.07
2022-10-08T21:24:21.107Z,5.53
2022-10-08T21:26:50.041Z,8.17
2022-10-08T21:29:19.875Z,6.67
2022-10-08T21:31:48.566Z,7.80
2022-10-08T21:34:16.996Z,9.10
2022-10-08T21:36:46.080Z,7.00
2022-10-08T21:39:17.680Z,7.10
2022-10-08T21:41:46.948Z,10.27
2022-10-08T21:44:16.212Z,6.57
2022-10-08T21:46:46.798Z,8.77
2022-10-08T21:49:17.956Z,6.73
2022-10-08T21:51:47.393Z,9.43
2022-10-08T21:54:17.714Z,8.77
2022-10-08T21:56:46.559Z,9.43
2022-10-08T21:59:17.379Z,7.00
2022-10-08T22:01:49.737Z,6.37
2022-10-08T22:04:20.240Z,7.73
2022-10-08T22:06:52.224Z,6.97
2022-10-08T22:09:23.603Z,6.23
2022-10-08T22:11:53.998Z,9.30
2022-10-08T22:14:22.970Z,6.97
2022-10-08T22:16:53.204Z,10.10
2022-10-08T22:19:21.975Z,6.87
2022-10-08T22:21:50.746Z,9.03
2022-10-08T22:24:19.358Z,10.70
2022-10-08T22:26:49.156Z,13.17
2022-10-08T22:29:18.146Z,8.53
2022-10-08T22:31:46.963Z,8.70
2022-10-08T22:34:16.750Z,10.67
2022-10-08T22:36:46.190Z,13.83
2022-10-08T22:39:14.612Z,13.53
2022-10-08T22:41:43.393Z,10.17
2022-10-08T22:44:12.060Z,9.23
2022-10-08T22:46:41.559Z,7.60
2022-10-08T22:49:12.338Z,13.57
2022-10-08T22:51:43.853Z,13.10
2022-10-08T22:54:12.607Z,9.53
2022-10-08T22:56:41.401Z,12.70
2022-10-08T22:59:10.663Z,9.37
2022-10-08T23:01:39.318Z,9.17
2022-10-08T23:04:08.083Z,11.83
2022-10-08T23:06:37.043Z,8.10
2022-10-08T23:09:09.082Z,10.13
2022-10-08T23:11:37.529Z,11.17
2022-10-08T23:14:06.885Z,9.13
2022-10-08T23:16:36.458Z,10.93
2022-10-08T23:19:08.350Z,6.63
2022-10-08T23:21:37.933Z,7.93
2022-10-08T23:24:07.920Z,8.57
2022-10-08T23:26:37.201Z,10.73
2022-10-08T23:29:06.373Z,11.43
2022-10-08T23:31:37.210Z,7.10
2022-10-08T23:34:06.954Z,7.40
2022-10-08T23:36:38.094Z,7.80
2022-10-08T23:39:11.494Z,8.00
2022-10-08T23:41:40.227Z,9.00
2022-10-08T23:44:09.265Z,5.70
2022-10-08T23:46:37.994Z,7.00
2022-10-08T23:49:06.640Z,7.33
2022-10-08T23:51:36.006Z,5.77
2022-10-08T23:54:04.798Z,6.33
2022-10-08T23:56:34.821Z,8.00
2022-10-08T23:59:03.539Z,9.30
